createdAt,value
2022-11-16T00:01:48.081Z,8.37
2022-11-16T00:06:41.260Z,8.13
2022-11-16T00:11:34.015Z,9.50
2022-11-16T00:16:25.790Z,9.07
2022-11-16T00:21:17.489Z,9.73
2022-11-16T00:26:12.178Z,9.77
2022-11-16T00:31:07.128Z,9.43
2022-11-16T00:36:02.497Z,9.33
2022-11-16T00:40:54.215Z,9.33
2022-11-16T00:45:46.100Z,10.37
2022-11-16T00:50:38.780Z,10.00
2022-11-16T00:55:30.756Z,10.70
2022-11-16T01:00:22.499Z,9.87
2022-11-16T01:05:14.191Z,9.80
2022-11-16T01:10:12.082Z,9.80
2022-11-16T01:15:08.776Z,9.30
2022-11-16T01:20:00.653Z,9.53
2022-11-16T01:24:52.466Z,9.73
2022-11-16T01:29:45.179Z,9.60
2022-11-16T01:34:37.107Z,9.50
2022-11-16T01:39:28.816Z,9.67
2022-11-16T01:44:32.969Z,10.00
2022-11-16T01:49:29.388Z,9.77
2022-11-16T01:54:21.063Z,9.43
2022-11-16T01:59:15.068Z,9.70
2022-11-16T02:04:09.863Z,9.40
2022-11-16T02:09:39.866Z,9.10
2022-11-16T02:14:54.499Z,9.43
2022-11-16T02:20:26.156Z,8.67
2022-11-16T02:25:29.900Z,9.37
2022-11-16T02:30:22.530Z,8.37
2022-11-16T02:35:31.968Z,9.03
2022-11-16T02:40:31.416Z,9.17
2022-11-16T02:45:29.273Z,8.43
2022-11-16T02:50:23.699Z,9.07
2022-11-16T02:55:15.929Z,10.03
2022-11-16T03:00:15.254Z,10.97
2022-11-16T03:05:34.000Z,11.50
2022-11-16T03:10:45.025Z,11.60
2022-11-16T03:15:41.288Z,10.37
2022-11-16T03:20:37.808Z,11.20
2022-11-16T03:25:58.072Z,10.30
2022-11-16T03:31:12.364Z,10.83
2022-11-16T03:36:15.247Z,10.27
2022-11-16T03:41:10.761Z,8.70
2022-11-16T03:46:02.503Z,8.23
2022-11-16T03:50:54.220Z,7.30
2022-11-16T03:55:49.781Z,8.07
2022-11-16T04:00:41.749Z,7.17
2022-11-16T04:05:51.900Z,7.43
2022-11-16T04:11:02.940Z,7.80
2022-11-16T04:16:13.364Z,7.87
2022-11-16T04:21:24.246Z,7.80
2022-11-16T04:26:16.315Z,7.60
2022-11-16T04:31:31.165Z,7.63
2022-11-16T04:36:42.507Z,6.80
2022-11-16T04:41:53.458Z,7.80
2022-11-16T04:47:04.877Z,7.87
2022-11-16T04:51:56.636Z,7.80
2022-11-16T04:56:48.626Z,8.63
2022-11-16T18:29:28.682Z,6.07
